createdAt,value
2019-02-12T00:00:46.392Z,50.20
2019-02-12T00:03:15.688Z,41.10
2019-02-12T00:05:44.989Z,38.90
2019-02-12T00:08:14.264Z,37.03
2019-02-12T00:10:43.633Z,35.03
2019-02-12T00:13:12.999Z,39.37
2019-02-12T00:15:42.293Z,31.47
2019-02-12T00:18:11.860Z,39.40
2019-02-12T00:20:41.167Z,28.57
2019-02-12T00:23:10.768Z,42.83
2019-02-12T00:25:40.061Z,33.13
2019-02-12T00:28:09.975Z,42.10
2019-02-12T00:30:39.267Z,42.83
2019-02-12T00:33:08.648Z,50.70
2019-02-12T00:35:38.021Z,50.93
2019-02-12T00:38:07.680Z,52.43
2019-02-12T00:40:37.281Z,64.93
2019-02-12T00:43:06.578Z,67.97
2019-02-12T00:45:36.296Z,75.43
2019-02-12T00:48:05.661Z,69.43
2019-02-12T00:50:34.951Z,68.40
2019-02-12T00:53:04.236Z,62.03
2019-02-12T00:55:33.536Z,65.47
2019-02-12T00:58:02.856Z,75.00
2019-02-12T01:00:32.146Z,67.33
2019-02-12T01:03:01.796Z,59.60
2019-02-12T01:05:31.412Z,56.80
2019-02-12T01:08:00.727Z,55.70
2019-02-12T01:10:30.010Z,41.87
2019-02-12T01:12:59.612Z,36.53
2019-02-12T01:15:29.276Z,31.00
2019-02-12T01:17:58.588Z,31.90
2019-02-12T01:20:28.530Z,26.53
2019-02-12T01:22:58.144Z,30.63
2019-02-12T01:25:27.430Z,35.07
2019-02-12T01:27:56.754Z,28.50
2019-02-12T01:30:26.046Z,27.80
2019-02-12T01:32:55.752Z,30.93
2019-02-12T01:35:25.058Z,32.00
2019-02-12T01:37:54.384Z,31.27
2019-02-12T01:40:24.055Z,26.67
2019-02-12T01:42:53.375Z,30.90
2019-02-12T01:45:22.669Z,31.20
2019-02-12T01:47:52.266Z,30.20
2019-02-12T01:50:21.967Z,30.10
2019-02-12T01:52:51.267Z,33.83
2019-02-12T01:55:20.574Z,22.27
2019-02-12T01:57:49.959Z,29.33
2019-02-12T02:00:19.252Z,22.57
2019-02-12T02:02:48.559Z,19.60
2019-02-12T02:05:18.155Z,30.80
2019-02-12T02:07:47.534Z,21.77
2019-02-12T02:10:18.176Z,24.27
2019-02-12T02:12:47.493Z,24.40
2019-02-12T02:15:17.464Z,22.53
2019-02-12T02:17:47.179Z,19.63
2019-02-12T02:20:16.835Z,20.20
2019-02-12T02:22:46.169Z,23.17
2019-02-12T02:25:15.577Z,27.83
2019-02-12T02:27:45.233Z,23.57
2019-02-12T02:30:15.582Z,25.97
2019-02-12T02:32:44.970Z,24.60
2019-02-12T02:35:14.272Z,26.80
2019-02-12T02:37:43.643Z,22.63
2019-02-12T02:40:12.992Z,25.40
2019-02-12T02:42:42.295Z,20.93
2019-02-12T02:45:12.335Z,27.10
2019-02-12T02:47:41.708Z,25.93
2019-02-12T02:50:11.160Z,26.57
2019-02-12T02:52:40.539Z,27.23
2019-02-12T02:55:10.173Z,22.17
2019-02-12T02:57:39.507Z,25.27
2019-02-12T03:00:09.708Z,31.80
2019-02-12T03:02:39.013Z,27.57
2019-02-12T03:05:09.897Z,26.30
2019-02-12T03:07:39.304Z,35.87
2019-02-12T03:10:09.101Z,30.20
2019-02-12T03:12:38.764Z,36.77
2019-02-12T03:15:09.143Z,30.57
2019-02-12T03:17:38.634Z,31.53
2019-02-12T03:20:09.276Z,28.87
2019-02-12T03:22:38.718Z,32.80
2019-02-12T03:25:08.485Z,29.90
2019-02-12T03:27:37.734Z,28.57
2019-02-12T03:30:07.617Z,28.33
2019-02-12T03:32:37.302Z,23.43
2019-02-12T03:35:07.468Z,34.33
2019-02-12T03:37:37.143Z,29.97
2019-02-12T03:40:07.639Z,27.03
2019-02-12T03:42:37.011Z,26.50
2019-02-12T03:45:06.851Z,28.60
2019-02-12T03:47:37.253Z,30.30
2019-02-12T03:50:07.395Z,33.47
2019-02-12T03:52:36.611Z,34.83
2019-02-12T03:55:06.670Z,23.47
2019-02-12T03:57:36.149Z,34.50
2019-02-12T04:00:05.945Z,29.63
2019-02-12T04:02:35.170Z,24.00
2019-02-12T04:05:04.633Z,22.97
2019-02-12T04:07:33.861Z,29.07
2019-02-12T04:10:03.027Z,25.77
2019-02-12T04:12:32.251Z,26.60
2019-02-12T04:15:01.773Z,31.00
2019-02-12T04:17:30.955Z,27.93
2019-02-12T04:20:05.300Z,28.43
2019-02-12T04:22:38.230Z,26.03
2019-02-12T04:25:07.490Z,40.30
2019-02-12T04:27:36.700Z,30.60
2019-02-12T04:30:06.157Z,31.37
2019-02-12T04:32:35.399Z,26.30
2019-02-12T04:35:04.614Z,26.63
2019-02-12T04:37:33.842Z,24.87
2019-02-12T04:40:03.101Z,24.80
2019-02-12T04:42:32.730Z,21.67
2019-02-12T04:45:02.052Z,26.33
2019-02-12T04:47:31.200Z,25.17
2019-02-12T04:50:00.798Z,27.43
2019-02-12T04:52:31.922Z,28.77
2019-02-12T04:55:01.042Z,33.27
2019-02-12T04:57:30.483Z,28.63
2019-02-12T04:59:59.749Z,33.80
2019-02-12T05:02:29.624Z,33.30
2019-02-12T05:04:58.875Z,36.20
2019-02-12T05:07:28.113Z,45.90
2019-02-12T05:09:57.289Z,36.87
2019-02-12T05:12:26.693Z,50.97
2019-02-12T05:14:55.937Z,45.87
2019-02-12T05:17:25.240Z,46.33
2019-02-12T05:19:54.490Z,49.80
2019-02-12T05:22:23.727Z,47.50
2019-02-12T05:24:53.226Z,56.93
2019-02-12T05:27:22.454Z,56.47
2019-02-12T05:29:51.601Z,60.00
2019-02-12T05:32:20.807Z,87.67
2019-02-12T05:34:50.321Z,69.00
2019-02-12T05:37:19.600Z,59.07
2019-02-12T05:39:49.005Z,61.97
2019-02-12T05:42:18.255Z,58.43
2019-02-12T05:44:47.470Z,52.67
2019-02-12T05:47:16.693Z,53.43
2019-02-12T05:49:46.068Z,52.37
2019-02-12T05:52:15.247Z,57.17
2019-02-12T05:54:44.997Z,56.43
2019-02-12T05:57:14.571Z,53.30
2019-02-12T05:59:43.801Z,57.47
2019-02-12T06:02:12.990Z,50.77
2019-02-12T06:04:42.237Z,56.83
2019-02-12T06:07:17.924Z,54.97
2019-02-12T06:09:47.099Z,60.33
2019-02-12T06:12:16.241Z,57.63
2019-02-12T06:14:45.649Z,68.37
2019-02-12T06:17:15.443Z,69.03
2019-02-12T06:19:44.741Z,63.67
2019-02-12T06:22:13.922Z,65.37
2019-02-12T06:24:43.056Z,61.97
2019-02-12T06:27:12.202Z,58.90
2019-02-12T06:29:41.736Z,56.53
2019-02-12T06:32:11.352Z,62.23
2019-02-12T06:34:40.880Z,57.33
2019-02-12T06:37:10.427Z,55.47
2019-02-12T06:39:39.674Z,60.03
2019-02-12T06:42:08.829Z,54.67
2019-02-12T06:44:38.034Z,63.37
2019-02-12T06:47:07.350Z,58.07
2019-02-12T06:49:37.090Z,60.23
2019-02-12T06:52:06.522Z,56.63
2019-02-12T06:54:35.770Z,59.70
2019-02-12T06:57:04.962Z,62.23
2019-02-12T06:59:34.548Z,68.53
2019-02-12T07:02:39.685Z,55.43
2019-02-12T07:05:09.371Z,56.90
2019-02-12T07:08:25.677Z,57.30
2019-02-12T07:10:55.556Z,56.77
2019-02-12T07:13:42.568Z,48.43
2019-02-12T07:16:51.240Z,47.33
2019-02-12T07:19:49.966Z,56.77
2019-02-12T07:22:59.573Z,53.67
2019-02-12T07:25:55.223Z,60.30
2019-02-12T07:29:10.749Z,53.97
2019-02-12T07:32:09.435Z,58.10
2019-02-12T07:35:32.212Z,63.03
2019-02-12T07:38:26.517Z,63.63
2019-02-12T07:41:30.094Z,58.37
2019-02-12T07:44:21.892Z,58.23
2019-02-12T07:47:30.713Z,69.03
2019-02-12T07:50:30.644Z,54.07
2019-02-12T07:53:41.381Z,55.27
2019-02-12T07:56:39.745Z,56.80
2019-02-12T07:59:42.445Z,52.70
2019-02-12T08:02:38.724Z,49.67
2019-02-12T08:05:33.686Z,53.83
2019-02-12T08:08:49.193Z,47.23
2019-02-12T08:11:53.017Z,53.87
2019-02-12T08:14:46.966Z,47.13
2019-02-12T08:17:51.521Z,52.43
2019-02-12T08:21:03.804Z,54.73
2019-02-12T08:24:10.306Z,49.70
2019-02-12T08:26:59.810Z,56.70
2019-02-12T08:30:12.289Z,54.67
2019-02-12T08:33:30.737Z,52.00
2019-02-12T08:36:12.489Z,51.30
2019-02-12T08:39:18.131Z,52.47
2019-02-12T08:42:28.536Z,60.27
2019-02-12T08:45:25.621Z,68.67
2019-02-12T08:48:27.087Z,51.37
2019-02-12T08:51:31.119Z,54.67
2019-02-12T08:54:41.886Z,51.07
2019-02-12T08:58:01.089Z,60.50
2019-02-12T09:00:51.962Z,53.50
2019-02-12T09:03:52.001Z,56.70
2019-02-12T09:06:53.269Z,52.60
2019-02-12T09:09:58.587Z,53.70
2019-02-12T09:13:12.410Z,49.80
2019-02-12T09:16:17.101Z,48.73
2019-02-12T09:19:10.081Z,49.60
2019-02-12T09:22:13.091Z,53.00
2019-02-12T09:25:06.171Z,47.90
2019-02-12T09:28:07.954Z,48.73
2019-02-12T09:31:18.842Z,45.97
2019-02-12T09:34:34.431Z,38.60
2019-02-12T09:37:57.070Z,40.63
2019-02-12T09:40:51.088Z,37.93
2019-02-12T09:44:16.516Z,38.07
2019-02-12T09:47:30.068Z,34.33
2019-02-12T09:50:43.601Z,30.97
2019-02-12T09:54:08.419Z,26.70
2019-02-12T09:57:12.832Z,24.93
2019-02-12T10:00:01.404Z,24.67
2019-02-12T10:03:11.685Z,23.87
2019-02-12T10:06:21.762Z,28.67
2019-02-12T10:09:55.039Z,25.43
2019-02-12T10:13:01.209Z,23.10
2019-02-12T10:16:32.561Z,25.47
2019-02-12T10:19:28.266Z,25.47
2019-02-12T10:22:19.167Z,24.53
2019-02-12T10:24:58.563Z,21.03
2019-02-12T10:28:08.752Z,23.57
2019-02-12T10:30:55.367Z,24.37
2019-02-12T10:33:25.013Z,19.97
2019-02-12T10:35:54.189Z,19.27
2019-02-12T10:38:23.402Z,17.40
2019-02-12T10:40:53.149Z,20.07
2019-02-12T10:43:22.465Z,16.83
2019-02-12T10:45:52.009Z,16.30
2019-02-12T10:48:21.639Z,18.60
2019-02-12T10:50:51.248Z,17.37
2019-02-12T10:53:21.067Z,15.73
2019-02-12T10:55:50.613Z,16.07
2019-02-12T10:58:19.899Z,17.77
2019-02-12T11:00:49.837Z,17.17
2019-02-12T11:03:19.101Z,18.67
2019-02-12T11:05:48.463Z,16.13
2019-02-12T11:08:17.685Z,13.30
2019-02-12T11:10:47.176Z,19.53
2019-02-12T11:13:16.426Z,16.77
2019-02-12T11:15:45.678Z,15.23
2019-02-12T11:18:15.150Z,12.77
2019-02-12T11:20:44.331Z,13.13
2019-02-12T11:23:13.502Z,17.27
2019-02-12T11:25:42.790Z,10.50
2019-02-12T11:28:12.020Z,12.80
2019-02-12T11:30:41.192Z,13.97
2019-02-12T11:33:10.658Z,11.93
2019-02-12T11:35:39.890Z,10.57
2019-02-12T11:38:09.128Z,11.50
2019-02-12T11:40:38.643Z,11.33
2019-02-12T11:43:07.884Z,16.40
2019-02-12T11:45:37.036Z,10.73
2019-02-12T11:48:06.532Z,14.27
2019-02-12T11:50:35.779Z,14.77
2019-02-12T11:53:05.285Z,12.60
2019-02-12T11:55:34.583Z,14.10
2019-02-12T11:58:04.596Z,11.47
2019-02-12T12:00:39.499Z,9.73
2019-02-12T12:03:16.064Z,13.07
2019-02-12T12:05:45.899Z,13.73
2019-02-12T12:08:15.059Z,11.97
2019-02-12T12:10:44.583Z,12.97
2019-02-12T12:13:13.830Z,13.67
2019-02-12T12:15:43.257Z,10.67
2019-02-12T12:18:12.434Z,12.97
2019-02-12T12:20:41.671Z,11.93
2019-02-12T12:23:10.893Z,13.60
2019-02-12T12:25:40.536Z,11.03
2019-02-12T12:28:09.793Z,10.63
2019-02-12T12:30:39.399Z,10.20
2019-02-12T12:33:09.071Z,11.93
2019-02-12T12:35:38.220Z,13.40
2019-02-12T12:38:07.676Z,12.60
2019-02-12T12:40:37.189Z,12.00
2019-02-12T12:43:06.493Z,10.37
2019-02-12T12:45:36.092Z,10.83
2019-02-12T12:48:05.341Z,11.70
2019-02-12T12:50:34.588Z,10.63
2019-02-12T12:53:03.774Z,12.60
2019-02-12T12:55:33.660Z,13.17
2019-02-12T12:58:02.837Z,12.67
2019-02-12T13:00:32.068Z,10.87
2019-02-12T13:03:01.407Z,11.97
2019-02-12T13:05:30.719Z,8.80
2019-02-12T13:07:59.882Z,10.37
2019-02-12T13:10:29.108Z,10.03
2019-02-12T13:12:58.682Z,10.77
2019-02-12T13:15:27.924Z,7.73
2019-02-12T13:17:57.984Z,9.20
2019-02-12T13:20:27.180Z,11.33
2019-02-12T13:22:56.692Z,9.03
2019-02-12T13:25:25.930Z,10.90
2019-02-12T13:27:55.836Z,10.57
2019-02-12T13:30:25.108Z,7.97
2019-02-12T13:32:54.715Z,8.03
2019-02-12T13:35:23.867Z,8.93
2019-02-12T13:37:53.651Z,10.73
2019-02-12T13:40:23.001Z,10.00
2019-02-12T13:42:52.248Z,7.87
2019-02-12T13:45:21.507Z,7.97
2019-02-12T13:47:50.701Z,8.43
2019-02-12T13:50:19.933Z,7.10
2019-02-12T13:52:49.565Z,10.77
2019-02-12T13:55:19.166Z,10.10
2019-02-12T13:57:48.384Z,8.20
2019-02-12T14:00:17.689Z,9.77
2019-02-12T14:02:47.407Z,12.40
2019-02-12T14:05:17.474Z,8.37
2019-02-12T14:07:46.745Z,11.27
2019-02-12T14:10:16.347Z,8.60
2019-02-12T14:12:47.589Z,9.77
2019-02-12T14:15:18.713Z,10.70
2019-02-12T14:17:47.887Z,14.73
2019-02-12T14:20:17.461Z,12.40
2019-02-12T14:22:46.696Z,11.67
2019-02-12T14:25:16.135Z,9.83
2019-02-12T14:27:45.275Z,10.57
2019-02-12T14:30:14.596Z,9.60
2019-02-12T14:32:43.761Z,10.27
2019-02-12T14:35:13.913Z,11.53
2019-02-12T14:37:43.445Z,10.13
2019-02-12T14:40:12.962Z,11.23
2019-02-12T14:42:42.463Z,12.17
2019-02-12T14:45:12.748Z,14.20
2019-02-12T14:47:41.898Z,14.37
2019-02-12T14:50:12.224Z,12.23
2019-02-12T14:52:41.430Z,10.20
2019-02-12T14:55:10.890Z,13.03
2019-02-12T14:57:40.681Z,10.40
2019-02-12T15:00:12.559Z,19.17
2019-02-12T15:02:41.897Z,12.73
2019-02-12T15:05:11.348Z,12.60
2019-02-12T15:07:40.850Z,14.73
2019-02-12T15:10:10.878Z,13.07
2019-02-12T15:12:40.026Z,13.10
2019-02-12T15:15:09.804Z,17.33
2019-02-12T15:17:38.971Z,14.97
2019-02-12T15:20:08.836Z,11.63
2019-02-12T15:22:38.129Z,13.83
2019-02-12T15:25:08.276Z,13.33
2019-02-12T15:27:37.821Z,19.97
2019-02-12T15:30:09.169Z,18.30
2019-02-12T15:32:38.318Z,16.60
2019-02-12T15:35:08.796Z,16.57
2019-02-12T15:37:37.959Z,15.23
2019-02-12T15:40:09.474Z,18.07
2019-02-12T15:42:38.693Z,15.83
2019-02-12T15:45:10.043Z,13.23
2019-02-12T15:47:39.217Z,17.33
2019-02-12T15:50:09.531Z,16.57
2019-02-12T15:52:38.711Z,18.70
2019-02-12T15:55:09.342Z,15.17
2019-02-12T15:57:40.298Z,19.07
2019-02-12T16:00:15.670Z,14.37
2019-02-12T16:02:45.939Z,21.20
2019-02-12T16:05:15.196Z,20.00
2019-02-12T16:07:46.701Z,14.97
2019-02-12T16:10:17.770Z,15.37
2019-02-12T16:12:48.926Z,13.67
2019-02-12T16:15:21.144Z,14.67
2019-02-12T16:17:49.751Z,16.80
2019-02-12T16:20:19.595Z,17.73
2019-02-12T16:22:48.831Z,18.07
2019-02-12T16:25:18.366Z,18.47
2019-02-12T16:27:47.583Z,25.97
2019-02-12T16:30:43.927Z,16.63
2019-02-12T16:33:13.164Z,15.90
2019-02-12T16:35:42.383Z,22.23
2019-02-12T16:38:11.866Z,24.53
2019-02-12T16:40:41.784Z,14.43
2019-02-12T16:43:11.193Z,25.83
2019-02-12T16:45:47.676Z,20.70
2019-02-12T16:48:16.825Z,23.67
2019-02-12T16:50:46.178Z,18.23
2019-02-12T16:53:15.323Z,22.37
2019-02-12T16:55:44.559Z,21.90
2019-02-12T16:58:13.889Z,23.87
2019-02-12T17:00:43.394Z,16.27
2019-02-12T17:03:12.586Z,23.80
2019-02-12T17:05:42.122Z,22.63
2019-02-12T17:08:12.036Z,20.43
2019-02-12T17:10:41.217Z,14.10
2019-02-12T17:13:10.474Z,16.10
2019-02-12T17:15:39.725Z,44.83
2019-02-12T17:18:09.028Z,20.90
2019-02-12T17:20:38.377Z,16.97
2019-02-12T17:23:07.736Z,22.13
2019-02-12T17:25:36.943Z,30.03
2019-02-12T17:28:06.194Z,18.40
2019-02-12T17:30:35.424Z,18.30
2019-02-12T17:33:04.586Z,30.30
2019-02-12T17:35:33.844Z,19.33
2019-02-12T17:38:03.413Z,18.60
2019-02-12T17:40:33.047Z,19.13
2019-02-12T17:43:02.237Z,24.53
2019-02-12T17:45:31.445Z,18.63
2019-02-12T17:48:00.631Z,18.27
2019-02-12T17:50:30.125Z,17.87
2019-02-12T17:52:59.393Z,18.60
2019-02-12T17:55:28.689Z,21.17
2019-02-12T17:57:57.959Z,21.23
2019-02-12T18:00:30.330Z,24.03
2019-02-12T18:02:59.622Z,22.87
2019-02-12T18:05:29.261Z,21.67
2019-02-12T18:07:58.526Z,20.97
2019-02-12T18:10:27.805Z,21.77
2019-02-12T18:12:57.039Z,24.10
2019-02-12T18:15:26.593Z,21.30
2019-02-12T18:17:55.779Z,21.33
2019-02-12T18:20:26.796Z,22.33
2019-02-12T18:22:56.577Z,20.73
2019-02-12T18:25:25.795Z,17.67
2019-02-12T18:27:55.397Z,22.20
2019-02-12T18:30:25.019Z,23.43
2019-02-12T18:32:54.270Z,23.43
2019-02-12T18:35:24.261Z,23.97
2019-02-12T18:37:53.593Z,29.80
2019-02-12T18:40:23.574Z,25.03
2019-02-12T18:42:53.288Z,22.63
2019-02-12T18:45:22.528Z,24.67
2019-02-12T18:47:51.906Z,26.83
2019-02-12T18:50:21.158Z,22.53
2019-02-12T18:52:50.358Z,20.33
2019-02-12T18:55:20.073Z,19.20
2019-02-12T18:57:53.360Z,20.47
2019-02-12T19:00:24.970Z,21.30
2019-02-12T19:02:57.257Z,21.33
2019-02-12T19:05:28.300Z,22.90
2019-02-12T19:08:00.663Z,23.63
2019-02-12T19:10:30.831Z,19.03
2019-02-12T19:13:05.427Z,24.23
2019-02-12T19:15:38.956Z,23.03
2019-02-12T19:18:11.059Z,28.23
2019-02-12T19:20:40.229Z,21.93
2019-02-12T19:23:09.495Z,20.63
2019-02-12T19:25:39.162Z,25.00
2019-02-12T19:28:08.542Z,25.00
2019-02-12T19:30:37.961Z,22.43
2019-02-12T19:33:07.271Z,22.63
2019-02-12T19:35:36.503Z,26.03
2019-02-12T19:38:05.793Z,23.97
2019-02-12T19:40:35.705Z,29.27
2019-02-12T19:43:04.909Z,25.10
2019-02-12T19:45:34.221Z,24.13
2019-02-12T19:48:03.516Z,23.20
2019-02-12T19:50:33.238Z,27.07
2019-02-12T19:53:02.502Z,26.03
2019-02-12T19:55:31.694Z,22.73
2019-02-12T19:58:01.090Z,25.50
2019-02-12T20:00:32.479Z,22.47
2019-02-12T20:03:01.635Z,25.67
2019-02-12T20:05:30.979Z,24.30
2019-02-12T20:08:00.209Z,25.40
2019-02-12T20:10:30.172Z,20.90
2019-02-12T20:12:59.754Z,22.07
2019-02-12T20:15:28.913Z,20.73
2019-02-12T20:17:58.385Z,23.23
2019-02-12T20:20:27.566Z,24.67
2019-02-12T20:22:56.853Z,27.07
2019-02-12T20:25:26.011Z,25.73
2019-02-12T20:27:55.200Z,31.43
2019-02-12T20:30:24.436Z,23.43
2019-02-12T20:32:53.796Z,25.83
2019-02-12T20:35:22.962Z,26.10
2019-02-12T20:37:52.286Z,25.57
2019-02-12T20:40:21.615Z,23.97
2019-02-12T20:42:50.814Z,25.97
2019-02-12T20:45:20.463Z,26.70
2019-02-12T20:47:49.630Z,29.07
2019-02-12T20:50:19.143Z,25.10
2019-02-12T20:52:48.300Z,29.37
2019-02-12T20:55:17.461Z,32.47
2019-02-12T20:57:46.672Z,25.47
2019-02-12T21:00:17.208Z,31.27
2019-02-12T21:02:46.435Z,32.57
2019-02-12T21:05:16.146Z,27.57
2019-02-12T21:07:45.850Z,25.07
2019-02-12T21:10:16.181Z,27.03
2019-02-12T21:12:45.713Z,28.97
2019-02-12T21:15:17.189Z,30.33
2019-02-12T21:17:46.373Z,27.87
2019-02-12T21:20:15.898Z,30.23
2019-02-12T21:22:45.207Z,30.33
2019-02-12T21:25:14.549Z,28.03
2019-02-12T21:27:43.717Z,27.80
2019-02-12T21:30:15.936Z,26.07
2019-02-12T21:32:45.717Z,26.97
2019-02-12T21:35:15.370Z,25.60
2019-02-12T21:37:44.918Z,30.10
2019-02-12T21:40:16.578Z,26.23
2019-02-12T21:42:48.076Z,27.83
2019-02-12T21:45:19.825Z,32.63
2019-02-12T21:47:51.688Z,36.37
2019-02-12T21:50:23.002Z,28.90
2019-02-12T21:52:56.696Z,25.00
2019-02-12T21:55:26.005Z,28.83
2019-02-12T21:57:55.268Z,31.83
2019-02-12T22:00:24.482Z,27.20
2019-02-12T22:02:53.675Z,26.57
2019-02-12T22:05:23.017Z,25.03
2019-02-12T22:07:52.503Z,24.13
2019-02-12T22:10:21.668Z,31.57
2019-02-12T22:12:50.842Z,30.03
2019-02-12T22:15:19.976Z,29.23
2019-02-12T22:17:49.152Z,31.40
2019-02-12T22:20:18.788Z,35.43
2019-02-12T22:22:48.031Z,28.93
2019-02-12T22:25:17.262Z,33.87
2019-02-12T22:27:46.497Z,30.23
2019-02-12T22:30:17.846Z,28.67
2019-02-12T22:32:47.072Z,31.53
2019-02-12T22:35:16.290Z,32.63
2019-02-12T22:37:45.845Z,32.50
2019-02-12T22:40:15.375Z,34.97
2019-02-12T22:42:44.679Z,34.23
2019-02-12T22:45:15.856Z,35.87
2019-02-12T22:47:45.099Z,35.50
2019-02-12T22:50:14.394Z,35.57
2019-02-12T22:52:43.568Z,33.83
2019-02-12T22:55:13.242Z,34.50
2019-02-12T22:57:49.003Z,32.67
2019-02-12T23:00:33.843Z,35.93
2019-02-12T23:03:03.114Z,40.83
2019-02-12T23:05:32.401Z,36.13
2019-02-12T23:08:01.993Z,37.87
2019-02-12T23:10:31.919Z,42.23
2019-02-12T23:13:01.215Z,39.00
2019-02-12T23:15:30.807Z,38.90
2019-02-12T23:17:59.986Z,35.60
2019-02-12T23:20:29.262Z,35.17
2019-02-12T23:22:58.432Z,34.73
2019-02-12T23:25:27.963Z,44.63
2019-02-12T23:27:57.863Z,39.30
2019-02-12T23:30:27.594Z,36.90
2019-02-12T23:32:57.093Z,40.20
2019-02-12T23:35:26.255Z,40.93
2019-02-12T23:37:55.488Z,38.83
2019-02-12T23:40:24.825Z,34.57
2019-02-12T23:42:53.992Z,35.33
2019-02-12T23:45:23.168Z,35.50
2019-02-12T23:47:52.413Z,32.53
2019-02-12T23:50:21.628Z,35.70
2019-02-12T23:52:50.877Z,41.57
2019-02-12T23:55:20.109Z,34.37
2019-02-12T23:57:49.289Z,35.97
